Time;durP1;ratioP1;P1;durP2;ratioP2;P2;SDS_P1;SDS_P2;PMS_P1;PMS_P2;Temp;Humidity;BMP_temperature;BMP_pressure;BME280_temperature;BME280_humidity;BME280_pressure;Samples;Min_cycle;Max_cycle;Signal;HPM_P1;HPM_P2
2022/04/27 00:00:03;;;;;;;;;;;11.60;85.10;;;;;;5101313;28;20296;-69
2022/04/27 00:02:37;;;;;;;;;;;11.60;85.10;;;;;;5089372;28;20327;-69
2022/04/27 00:05:03;;;;;;;;;;;11.60;85.20;;;;;;5084584;28;19920;-68
2022/04/27 00:07:28;;;;;;;;;;;11.60;85.20;;;;;;5086324;28;20003;-69
2022/04/27 00:09:54;;;;;;;;;;;11.60;85.20;;;;;;5087024;28;19970;-69
2022/04/27 00:12:20;;;;;;;;;;;11.60;85.30;;;;;;5088704;28;19947;-69
2022/04/27 00:14:47;;;;;;;;;;;11.60;85.50;;;;;;5084916;28;19920;-69
2022/04/27 00:17:12;;;;;;;;;;;11.60;85.60;;;;;;5086949;28;19920;-69
2022/04/27 00:19:38;;;;;;;;;;;11.60;85.70;;;;;;5069000;28;20203;-68
2022/04/27 00:22:04;;;;;;;;;;;11.60;85.80;;;;;;5085540;28;19921;-70
2022/04/27 00:24:29;;;;;;;;;;;11.60;85.80;;;;;;5086672;28;19912;-69
2022/04/27 00:26:55;;;;;;;;;;;11.60;85.90;;;;;;5087612;28;19999;-69
2022/04/27 00:29:20;;;;;;;;;;;11.60;85.90;;;;;;5084376;28;19920;-70
2022/04/27 00:31:46;;;;;;;;;;;11.60;86.00;;;;;;5100442;28;19923;-69
2022/04/27 00:34:12;;;;;;;;;;;11.60;86.00;;;;;;5087063;28;19927;-70
2022/04/27 00:36:37;;;;;;;;;;;11.60;85.90;;;;;;5085937;28;19916;-69
2022/04/27 00:39:03;;;;;;;;;;;11.60;86.00;;;;;;5090470;28;19951;-69
2022/04/27 00:41:29;;;;;;;;;;;11.60;86.00;;;;;;5089642;28;19938;-70
2022/04/27 00:43:54;;;;;;;;;;;11.60;86.00;;;;;;5089962;28;19962;-68
2022/04/27 00:46:20;;;;;;;;;;;11.60;86.00;;;;;;5089795;28;19961;-69
2022/04/27 00:48:46;;;;;;;;;;;11.60;86.10;;;;;;5091891;28;20402;-71
2022/04/27 00:51:16;;;;;;;;;;;11.60;86.10;;;;;;5088899;28;19912;-71
2022/04/27 00:53:43;;;;;;;;;;;11.60;86.10;;;;;;5088844;28;20349;-71
2022/04/27 00:56:09;;;;;;;;;;;11.60;86.10;;;;;;5089403;28;20011;-71
2022/04/27 00:58:35;;;;;;;;;;;11.60;86.30;;;;;;5088034;28;19965;-71
2022/04/27 01:01:00;;;;;;;;;;;11.60;86.30;;;;;;5089762;28;19912;-71
2022/04/27 01:03:26;;;;;;;;;;;11.60;86.40;;;;;;5088794;28;19912;-72
2022/04/27 01:05:51;;;;;;;;;;;11.60;86.50;;;;;;5088935;28;20436;-70
2022/04/27 01:08:18;;;;;;;;;;;11.60;86.50;;;;;;5087981;28;20442;-70
2022/04/27 01:10:44;;;;;;;;;;;11.50;86.50;;;;;;5089534;28;19970;-71
2022/04/27 01:13:11;;;;;;;;;;;11.50;86.50;;;;;;5089260;28;19920;-70
2022/04/27 01:15:36;;;;;;;;;;;11.50;86.70;;;;;;5088138;28;19963;-71
2022/04/27 01:18:06;;;;;;;;;;;11.50;86.70;;;;;;5091447;28;20356;-70
2022/04/27 01:20:37;;;;;;;;;;;11.40;86.80;;;;;;5104189;28;19938;-71
2022/04/27 01:23:04;;;;;;;;;;;11.40;86.90;;;;;;5090805;28;19994;-71
2022/04/27 01:25:50;;;;;;;;;;;11.40;87.00;;;;;;5088976;28;19946;-69
2022/04/27 01:28:16;;;;;;;;;;;11.30;87.10;;;;;;5088047;28;19912;-70
2022/04/27 01:30:44;;;;;;;;;;;11.30;87.20;;;;;;5090026;28;19979;-69
2022/04/27 01:33:10;;;;;;;;;;;11.20;87.30;;;;;;5070422;28;20438;-70
2022/04/27 01:35:37;;;;;;;;;;;11.20;87.30;;;;;;5087590;28;19995;-70
2022/04/27 01:38:03;;;;;;;;;;;11.20;87.40;;;;;;5087577;28;19991;-70
2022/04/27 01:40:37;;;;;;;;;;;11.10;87.50;;;;;;5071572;28;19916;-69
2022/04/27 01:43:03;;;;;;;;;;;11.10;87.70;;;;;;5086312;28;19919;-70
2022/04/27 01:45:29;;;;;;;;;;;11.00;87.80;;;;;;5089343;28;19912;-69
2022/04/27 01:47:55;;;;;;;;;;;11.00;88.00;;;;;;5088929;28;20007;-70
2022/04/27 01:50:20;;;;;;;;;;;10.90;88.10;;;;;;5087239;28;19916;-70
2022/04/27 01:55:30;;;;;;;;;;;10.80;88.40;;;;;;5088954;28;19977;-69
2022/04/27 01:57:56;;;;;;;;;;;10.80;88.50;;;;;;5085545;28;19998;-70
2022/04/27 02:00:22;;;;;;;;;;;10.80;88.60;;;;;;5073285;28;20075;-69
2022/04/27 02:02:48;;;;;;;;;;;10.70;88.70;;;;;;5087766;28;19942;-70
2022/04/27 02:05:14;;;;;;;;;;;10.70;88.90;;;;;;5089207;28;19918;-70
2022/04/27 02:07:40;;;;;;;;;;;10.60;88.90;;;;;;5088171;28;19924;-69
2022/04/27 02:10:06;;;;;;;;;;;10.60;89.00;;;;;;5074911;28;19985;-69
2022/04/27 02:12:33;;;;;;;;;;;10.60;89.10;;;;;;5087129;28;20040;-70
2022/04/27 02:15:10;;;;;;;;;;;10.50;89.30;;;;;;5085566;28;19938;-71
2022/04/27 02:17:39;;;;;;;;;;;10.50;89.40;;;;;;5088108;28;19931;-70
2022/04/27 02:20:05;;;;;;;;;;;10.50;89.60;;;;;;5088739;28;20305;-71
2022/04/27 02:22:32;;;;;;;;;;;10.50;89.70;;;;;;5086555;28;19923;-70
2022/04/27 02:24:58;;;;;;;;;;;10.40;89.80;;;;;;5089036;28;19912;-70
2022/04/27 02:27:23;;;;;;;;;;;10.40;90.00;;;;;;5087781;28;20037;-70
2022/04/27 02:29:49;;;;;;;;;;;10.40;90.00;;;;;;5069542;28;19924;-70
2022/04/27 02:32:23;;;;;;;;;;;10.40;90.00;;;;;;5072299;28;20667;-71
2022/04/27 02:34:50;;;;;;;;;;;10.40;90.10;;;;;;5070333;28;19908;-72
2022/04/27 02:37:17;;;;;;;;;;;10.40;90.10;;;;;;5101924;28;19927;-70
2022/04/27 02:39:45;;;;;;;;;;;10.40;90.20;;;;;;5088701;28;19990;-71
2022/04/27 02:42:11;;;;;;;;;;;10.40;90.20;;;;;;5071094;28;20762;-72
2022/04/27 02:44:36;;;;;;;;;;;10.40;90.20;;;;;;5089062;28;19911;-71
2022/04/27 02:47:03;;;;;;;;;;;10.40;90.30;;;;;;5086182;28;19912;-72
2022/04/27 02:52:13;;;;;;;;;;;10.40;90.40;;;;;;5086465;28;20297;-71
2022/04/27 02:55:05;;;;;;;;;;;10.50;90.40;;;;;;5088799;28;19933;-70
2022/04/27 02:57:31;;;;;;;;;;;10.50;90.50;;;;;;5068580;28;19999;-70
2022/04/27 02:59:56;;;;;;;;;;;10.50;90.50;;;;;;5084466;28;20046;-71
2022/04/27 03:02:22;;;;;;;;;;;10.50;90.50;;;;;;5086829;28;19915;-73
2022/04/27 03:04:47;;;;;;;;;;;10.50;90.50;;;;;;5087883;28;19908;-75
2022/04/27 03:07:13;;;;;;;;;;;10.60;90.60;;;;;;5086673;28;20011;-72
2022/04/27 03:09:47;;;;;;;;;;;10.60;90.60;;;;;;5085298;28;19916;-73
2022/04/27 03:12:12;;;;;;;;;;;10.60;90.60;;;;;;5086495;28;19915;-72
2022/04/27 03:14:41;;;;;;;;;;;10.70;90.60;;;;;;5088749;28;20284;-70
2022/04/27 03:17:07;;;;;;;;;;;10.70;90.60;;;;;;5070272;28;19912;-71
2022/04/27 03:19:32;;;;;;;;;;;10.70;90.60;;;;;;5083671;28;19908;-71
2022/04/27 03:21:58;;;;;;;;;;;10.70;90.60;;;;;;5086168;28;19916;-73
2022/04/27 03:24:25;;;;;;;;;;;10.70;90.60;;;;;;5088599;28;19916;-71
2022/04/27 03:26:54;;;;;;;;;;;10.70;90.60;;;;;;5087416;28;20332;-72
2022/04/27 03:29:22;;;;;;;;;;;10.70;90.60;;;;;;5087550;28;20061;-70
2022/04/27 03:31:54;;;;;;;;;;;10.70;90.60;;;;;;5086362;28;20328;-70
2022/04/27 03:34:20;;;;;;;;;;;10.80;90.70;;;;;;5085218;28;19992;-69
2022/04/27 03:36:46;;;;;;;;;;;10.80;90.70;;;;;;5087089;28;19908;-70
2022/04/27 03:39:14;;;;;;;;;;;10.80;90.70;;;;;;5085875;28;20270;-69
2022/04/27 03:41:41;;;;;;;;;;;10.80;90.60;;;;;;5084931;28;20276;-70
2022/04/27 03:44:08;;;;;;;;;;;10.80;90.60;;;;;;5101569;28;19908;-71
2022/04/27 03:46:34;;;;;;;;;;;10.80;90.60;;;;;;5085074;28;20395;-70
2022/04/27 03:49:00;;;;;;;;;;;10.80;90.60;;;;;;5101811;28;19911;-68
2022/04/27 03:51:27;;;;;;;;;;;10.80;90.60;;;;;;5083245;28;19908;-69
2022/04/27 03:53:52;;;;;;;;;;;10.80;90.50;;;;;;5086541;28;20238;-70
2022/04/27 03:56:18;;;;;;;;;;;10.80;90.50;;;;;;5070391;28;19975;-70
2022/04/27 03:58:44;;;;;;;;;;;10.80;90.40;;;;;;5085207;28;19908;-70
2022/04/27 04:01:09;;;;;;;;;;;10.80;90.30;;;;;;5086957;28;19986;-70
2022/04/27 04:03:35;;;;;;;;;;;10.80;90.20;;;;;;5067240;28;19912;-71
2022/04/27 04:06:01;;;;;;;;;;;10.80;90.20;;;;;;5085019;28;19977;-69
2022/04/27 04:08:38;;;;;;;;;;;10.80;90.10;;;;;;5086045;28;19973;-69
2022/04/27 04:11:04;;;;;;;;;;;10.80;90.00;;;;;;5087198;28;19912;-69
2022/04/27 04:13:50;;;;;;;;;;;10.80;90.00;;;;;;5090514;28;20300;-70
2022/04/27 04:16:24;;;;;;;;;;;10.80;90.20;;;;;;5089525;28;19912;-69
2022/04/27 04:19:10;;;;;;;;;;;10.80;89.70;;;;;;5092710;28;19915;-71
2022/04/27 04:21:59;;;;;;;;;;;10.80;89.70;;;;;;5074434;28;20758;-69
2022/04/27 04:30:20;;;;;;;;;;;10.80;89.70;;;;;;5088649;28;19923;-69
2022/04/27 04:32:56;;;;;;;;;;;10.70;89.60;;;;;;5086029;28;20575;-70
2022/04/27 04:35:27;;;;;;;;;;;10.70;89.60;;;;;;5090893;28;19977;-70
2022/04/27 04:37:54;;;;;;;;;;;10.70;89.70;;;;;;5089594;28;19904;-66
2022/04/27 04:40:23;;;;;;;;;;;10.70;89.70;;;;;;5089144;28;19958;-69
2022/04/27 04:42:49;;;;;;;;;;;10.70;89.70;;;;;;5082028;28;19952;-69
2022/04/27 04:45:14;;;;;;;;;;;10.80;89.80;;;;;;5091547;28;19907;-68
2022/04/27 04:48:00;;;;;;;;;;;10.70;89.70;;;;;;5070268;28;19931;-70
2022/04/27 04:50:55;;;;;;;;;;;10.70;89.70;;;;;;5053974;28;19974;-71
2022/04/27 04:53:42;;;;;;;;;;;10.70;89.80;;;;;;5085311;28;19973;-69
2022/04/27 04:56:27;;;;;;;;;;;10.70;89.90;;;;;;5088930;28;19931;-69
2022/04/27 04:59:18;;;;;;;;;;;10.80;90.00;;;;;;5081756;28;19940;-70
2022/04/27 05:02:03;;;;;;;;;;;10.80;90.00;;;;;;5074097;28;20030;-71
2022/04/27 05:04:36;;;;;;;;;;;10.80;90.00;;;;;;5084935;28;19957;-71
2022/04/27 05:07:29;;;;;;;;;;;10.80;90.00;;;;;;5086042;28;20005;-70
2022/04/27 05:10:19;;;;;;;;;;;10.80;90.00;;;;;;5089043;28;19978;-69
2022/04/27 05:13:17;;;;;;;;;;;10.80;90.00;;;;;;5064154;28;19934;-70
2022/04/27 05:16:01;;;;;;;;;;;10.80;90.00;;;;;;5089218;28;19999;-70
2022/04/27 05:18:49;;;;;;;;;;;10.80;90.00;;;;;;5087915;28;19922;-70
2022/04/27 05:21:33;;;;;;;;;;;10.90;90.00;;;;;;5086776;28;19957;-69
2022/04/27 05:24:22;;;;;;;;;;;10.90;90.00;;;;;;5087151;28;20413;-70
2022/04/27 05:27:07;;;;;;;;;;;10.90;90.10;;;;;;5071949;28;19995;-69
2022/04/27 05:33:03;;;;;;;;;;;11.00;90.10;;;;;;5065909;28;20258;-69
2022/04/27 05:35:49;;;;;;;;;;;10.90;90.00;;;;;;5064679;28;20407;-72
2022/04/27 05:38:28;;;;;;;;;;;11.00;90.00;;;;;;5067073;28;19916;-69
2022/04/27 05:41:04;;;;;;;;;;;11.60;88.90;;;;;;5064294;28;19920;-70
2022/04/27 05:43:48;;;;;;;;;;;11.90;87.20;;;;;;5068711;28;20435;-70
2022/04/27 05:46:46;;;;;;;;;;;11.70;88.00;;;;;;5077820;28;19959;-69
2022/04/27 05:49:35;;;;;;;;;;;11.50;88.60;;;;;;5067196;28;20392;-70
2022/04/27 05:52:14;;;;;;;;;;;11.40;88.80;;;;;;5053286;28;19912;-70
2022/04/27 05:54:59;;;;;;;;;;;11.30;89.10;;;;;;5076595;28;19928;-70
2022/04/27 05:57:51;;;;;;;;;;;11.30;89.20;;;;;;5067368;28;19951;-69
2022/04/27 06:00:46;;;;;;;;;;;11.30;89.10;;;;;;5065073;28;19940;-69
2022/04/27 06:03:30;;;;;;;;;;;11.30;89.00;;;;;;5066179;28;20626;-69
2022/04/27 06:06:01;;;;;;;;;;;11.30;88.80;;;;;;5052482;28;19908;-70
2022/04/27 06:08:27;;;;;;;;;;;11.30;88.60;;;;;;5051830;28;19923;-69
2022/04/27 06:10:56;;;;;;;;;;;11.30;88.50;;;;;;5062635;28;20023;-70
2022/04/27 06:13:24;;;;;;;;;;;11.40;88.40;;;;;;5065012;28;20382;-71
2022/04/27 06:16:01;;;;;;;;;;;11.30;88.20;;;;;;5066124;28;19916;-70
2022/04/27 06:18:48;;;;;;;;;;;11.40;88.10;;;;;;5067885;28;19912;-69
2022/04/27 06:21:14;;;;;;;;;;;12.00;84.00;;;;;;5065802;28;19909;-69
2022/04/27 06:23:40;;;;;;;;;;;12.40;80.90;;;;;;5066658;28;19916;-71
2022/04/27 06:26:06;;;;;;;;;;;12.70;79.90;;;;;;5066500;28;19909;-69
2022/04/27 06:28:34;;;;;;;;;;;12.80;78.80;;;;;;5053420;28;19920;-70
2022/04/27 06:30:59;;;;;;;;;;;13.00;77.50;;;;;;5085570;28;19926;-69
2022/04/27 06:33:25;;;;;;;;;;;13.10;76.80;;;;;;5088242;28;19915;-70
2022/04/27 06:35:51;;;;;;;;;;;13.20;75.00;;;;;;5084936;28;19927;-70
2022/04/27 06:38:18;;;;;;;;;;;13.30;73.90;;;;;;5083656;28;20357;-69
2022/04/27 06:40:44;;;;;;;;;;;13.40;73.20;;;;;;5068010;28;19916;-68
2022/04/27 06:43:09;;;;;;;;;;;13.40;71.90;;;;;;5084096;28;19919;-69
2022/04/27 06:45:44;;;;;;;;;;;13.50;70.80;;;;;;5086346;28;20277;-70
2022/04/27 06:48:30;;;;;;;;;;;13.50;70.30;;;;;;5086865;28;19915;-71
2022/04/27 06:51:15;;;;;;;;;;;13.60;70.80;;;;;;5084483;28;20515;-70
2022/04/27 06:53:59;;;;;;;;;;;13.60;70.10;;;;;;5089814;28;20394;-68
2022/04/27 06:56:43;;;;;;;;;;;13.60;70.40;;;;;;5087369;28;20711;-69
2022/04/27 06:59:28;;;;;;;;;;;13.70;70.10;;;;;;5088159;28;19912;-69
2022/04/27 07:02:00;;;;;;;;;;;13.70;71.00;;;;;;5086937;28;19911;-70
2022/04/27 07:04:26;;;;;;;;;;;13.70;70.50;;;;;;5087790;28;19934;-69
2022/04/27 07:06:52;;;;;;;;;;;13.70;70.90;;;;;;5086764;28;19969;-70
2022/04/27 07:09:18;;;;;;;;;;;13.70;70.70;;;;;;5088359;28;19912;-69
2022/04/27 07:11:44;;;;;;;;;;;13.80;70.10;;;;;;5084601;28;20293;-70
2022/04/27 07:14:11;;;;;;;;;;;13.70;70.10;;;;;;5099849;28;19908;-70
2022/04/27 07:16:37;;;;;;;;;;;13.80;70.00;;;;;;5084006;28;19939;-70
2022/04/27 07:19:02;;;;;;;;;;;13.80;71.40;;;;;;5084289;28;19959;-69
2022/04/27 07:21:28;;;;;;;;;;;13.80;72.30;;;;;;5082461;28;19916;-69
2022/04/27 07:23:54;;;;;;;;;;;13.80;73.70;;;;;;5084450;28;19961;-69
2022/04/27 07:26:20;;;;;;;13.80;3.07;;;13.80;73.40;;;;;;5068302;28;20437;-69
2022/04/27 07:28:48;;;;;;;11.73;3.20;;;13.80;74.10;;;;;;5069281;28;20425;-69
2022/04/27 07:31:13;;;;;;;13.17;2.90;;;13.80;75.10;;;;;;5058459;28;20894;-68
2022/04/27 07:33:39;;;;;;;12.15;3.30;;;13.80;75.60;;;;;;5060064;28;20475;-69
2022/04/27 07:36:06;;;;;;;13.03;3.10;;;13.90;75.90;;;;;;5059344;28;20408;-69
2022/04/27 07:38:32;;;;;;;11.63;2.75;;;13.80;75.00;;;;;;5059144;28;20415;-70
2022/04/27 07:40:58;;;;;;;12.27;3.20;;;13.80;75.50;;;;;;5062002;28;20410;-69
2022/04/27 07:43:23;;;;;;;12.68;3.20;;;13.80;76.40;;;;;;5066019;28;21045;-68
2022/04/27 07:45:49;;;;;;;14.45;3.40;;;13.80;76.00;;;;;;5062377;28;20420;-69
2022/04/27 07:48:14;;;;;;;13.10;3.20;;;13.80;76.20;;;;;;5085190;28;20405;-69
2022/04/27 07:50:40;;;;;;;13.40;3.20;;;13.70;76.10;;;;;;5091497;28;20509;-68
2022/04/27 07:53:06;;;;;;;10.02;2.78;;;13.70;75.50;;;;;;5088712;28;20890;-68
2022/04/27 07:55:32;;;;;;;13.88;4.20;;;13.70;74.40;;;;;;5084442;28;20398;-68
2022/04/27 07:57:57;;;;;;;16.27;3.92;;;13.80;74.50;;;;;;5087338;28;20564;-68
2022/04/27 08:00:23;;;;;;;12.10;3.33;;;13.80;75.20;;;;;;5090252;28;20400;-69
2022/04/27 08:02:49;;;;;;;15.60;3.38;;;13.80;74.90;;;;;;5085245;28;20410;-68
2022/04/27 08:05:18;;;;;;;12.23;3.73;;;13.90;75.00;;;;;;5089550;28;20440;-69
2022/04/27 08:07:45;;;;;;;14.70;4.00;;;13.90;75.10;;;;;;5086626;28;20425;-68
2022/04/27 08:10:17;;;;;;;16.02;3.67;;;13.90;73.90;;;;;;5081901;28;20429;-68
2022/04/27 08:12:46;;;;;;;10.68;3.53;;;13.90;74.30;;;;;;5086466;28;20413;-68
2022/04/27 08:15:13;;;;;;;13.70;3.70;;;14.00;74.60;;;;;;5089141;28;20405;-68
2022/04/27 08:17:52;;;;;;;19.05;4.35;;;14.00;74.20;;;;;;5089837;28;20764;-69
2022/04/27 08:23:08;;;;;;;12.95;3.92;;;14.00;74.20;;;;;;5085109;28;20518;-70
2022/04/27 08:25:35;;;;;;;;;;;14.00;74.70;;;;;;5090211;28;20398;-69
2022/04/27 08:28:03;;;;;;;;;;;14.00;74.90;;;;;;5089980;28;19908;-68
2022/04/27 08:30:29;;;;;;;;;;;14.10;74.70;;;;;;5088805;28;20006;-69
2022/04/27 08:32:55;;;;;;;;;;;14.10;73.90;;;;;;5087090;28;19999;-68
2022/04/27 08:35:21;;;;;;;;;;;14.10;73.00;;;;;;5088876;28;19927;-68
2022/04/27 08:37:46;;;;;;;;;;;14.20;72.40;;;;;;5088363;28;19912;-69
2022/04/27 08:40:12;;;;;;;;;;;14.20;71.90;;;;;;5087403;28;20364;-68
2022/04/27 08:42:37;;;;;;;;;;;14.30;72.50;;;;;;5092962;28;19908;-68
2022/04/27 08:45:03;;;;;;;;;;;14.30;72.80;;;;;;5087853;28;19939;-68
2022/04/27 08:47:29;;;;;;;;;;;14.30;71.30;;;;;;5091007;28;19912;-69
2022/04/27 08:49:55;;;;;;;;;;;14.30;71.00;;;;;;5089618;28;19923;-68
2022/04/27 08:52:21;;;;;;;;;;;14.30;70.80;;;;;;5090460;28;19987;-68
2022/04/27 08:54:48;;;;;;;;;;;14.30;70.60;;;;;;5085039;28;19915;-68
2022/04/27 08:57:13;;;;;;;;;;;14.40;70.60;;;;;;5088514;28;19915;-68
2022/04/27 08:59:39;;;;;;;;;;;14.40;70.10;;;;;;5090498;28;19915;-68
2022/04/27 09:02:24;;;;;;;;;;;14.40;69.80;;;;;;5072593;28;20958;-70
2022/04/27 09:05:04;;;;;;;;;;;14.00;71.30;;;;;;5090836;28;19955;-68
2022/04/27 09:07:34;;;;;;;;;;;13.60;72.50;;;;;;5087093;28;20366;-69
2022/04/27 09:10:00;;;;;;;;;;;13.40;73.30;;;;;;5090355;28;20333;-68
2022/04/27 09:12:25;;;;;;;;;;;13.30;73.90;;;;;;5088035;28;19950;-68
2022/04/27 09:14:51;;;;;;;;;;;13.20;74.00;;;;;;5092143;28;19951;-69
2022/04/27 09:23:00;;;;;;;;;;;13.00;74.30;;;;;;5088662;28;19954;-70
2022/04/27 09:25:31;;;;;;;;;;;13.00;74.50;;;;;;5088228;28;19943;-68
2022/04/27 09:27:59;;;;;;;;;;;13.00;75.40;;;;;;5089417;28;20630;-69
2022/04/27 09:30:27;;;;;;;;;;;13.00;74.70;;;;;;5090096;28;19927;-69
2022/04/27 09:32:53;;;;;;;;;;;13.00;74.70;;;;;;5089360;28;19950;-70
2022/04/27 09:35:32;;;;;;;;;;;13.10;75.00;;;;;;5088728;28;19947;-68
2022/04/27 09:38:31;;;;;;;;;;;13.10;75.20;;;;;;5089956;28;20015;-69
2022/04/27 09:40:57;;;;;;;;;;;13.10;75.10;;;;;;5100688;28;19908;-68
2022/04/27 09:43:42;;;;;;;;;;;13.10;75.10;;;;;;5087005;28;20272;-68
2022/04/27 09:46:25;;;;;;;;;;;13.20;75.10;;;;;;5087235;28;20324;-69
2022/04/27 09:49:09;;;;;;;;;;;13.20;75.10;;;;;;5087954;28;19926;-68
2022/04/27 09:51:36;;;;;;;;;;;13.20;75.00;;;;;;5085897;28;19920;-68
2022/04/27 09:54:02;;;;;;;;;;;13.20;75.00;;;;;;5088540;28;20374;-67
2022/04/27 09:56:38;;;;;;;;;;;13.20;74.70;;;;;;5087239;28;19908;-68
2022/04/27 09:59:04;;;;;;;;;;;13.20;74.60;;;;;;5083204;28;19919;-68
2022/04/27 10:01:33;;;;;;;;;;;13.20;75.30;;;;;;5086540;28;19912;-67
2022/04/27 10:03:59;;;;;;;;;;;13.30;74.60;;;;;;5087242;28;19908;-69
2022/04/27 10:06:25;;;;;;;;;;;13.30;74.40;;;;;;5088521;28;19915;-68
2022/04/27 10:08:51;;;;;;;;;;;13.30;74.20;;;;;;5086391;28;19907;-68
2022/04/27 10:11:17;;;;;;;;;;;13.30;74.20;;;;;;5087753;28;19920;-67
2022/04/27 10:13:43;;;;;;;;;;;13.30;74.10;;;;;;5069191;28;19915;-69
2022/04/27 10:16:09;;;;;;;;;;;13.30;73.90;;;;;;5088835;28;19912;-71
2022/04/27 10:18:34;;;;;;;;;;;13.30;73.90;;;;;;5087164;28;19912;-69
2022/04/27 10:21:01;;;;;;;;;;;13.20;74.00;;;;;;5087802;28;19923;-69
2022/04/27 10:23:28;;;;;;;;;;;13.20;74.00;;;;;;5086664;28;19997;-69
2022/04/27 10:26:09;;;;;;;;;;;13.20;73.80;;;;;;5084640;28;19923;-70
2022/04/27 10:28:40;;;;;;;;;;;13.20;73.60;;;;;;5085660;28;20376;-70
2022/04/27 10:31:08;;;;;;;;;;;13.20;73.50;;;;;;5087575;28;20329;-70
2022/04/27 10:33:53;;;;;;;;;;;13.20;73.40;;;;;;5083507;28;19956;-69
2022/04/27 10:36:21;;;;;;;;;;;13.10;73.00;;;;;;5080198;28;20258;-69
2022/04/27 10:39:06;;;;;;;;;;;13.10;73.10;;;;;;5087584;28;19916;-68
2022/04/27 10:41:31;;;;;;;;;;;13.10;73.00;;;;;;5078521;28;19943;-68
2022/04/27 10:43:57;;;;;;;;;;;13.20;73.00;;;;;;5079365;28;20837;-68
2022/04/27 10:46:36;;;;;;;;;;;13.20;73.00;;;;;;5069980;28;19948;-69
2022/04/27 10:49:19;;;;;;;;;;;13.20;72.90;;;;;;5084103;28;19914;-68
2022/04/27 10:52:03;;;;;;;;;;;13.20;72.90;;;;;;5088926;28;20360;-67
2022/04/27 10:54:31;;;;;;;;;;;13.20;72.80;;;;;;5087357;28;19951;-69
2022/04/27 10:57:25;;;;;;;;;;;13.20;72.50;;;;;;5074069;28;19908;-68
2022/04/27 11:00:05;;;;;;;;;;;13.30;72.40;;;;;;5087060;28;19961;-69
2022/04/27 11:02:37;;;;;;;;;;;13.30;72.30;;;;;;5068399;28;19935;-69
2022/04/27 11:05:23;;;;;;;;;;;13.30;72.20;;;;;;5087144;28;19916;-69
2022/04/27 11:08:14;;;;;;;;;;;13.40;72.00;;;;;;5085125;28;20010;-69
2022/04/27 11:10:40;;;;;;;;;;;13.40;71.70;;;;;;5102913;28;20432;-70
2022/04/27 11:13:07;;;;;;;;;;;13.50;71.40;;;;;;5086051;28;19973;-70
2022/04/27 11:15:33;;;;;;;;;;;13.50;71.10;;;;;;5084244;28;19922;-70
2022/04/27 11:18:03;;;;;;;;;;;13.70;71.00;;;;;;5088527;28;19908;-69
2022/04/27 11:20:30;;;;;;;;;;;13.70;70.60;;;;;;5087366;28;20252;-69
2022/04/27 11:22:56;;;;;;;;;;;13.80;70.30;;;;;;5085934;28;19957;-70
2022/04/27 11:25:22;;;;;;;;;;;13.90;70.10;;;;;;5088039;28;19916;-68
2022/04/27 11:27:48;;;;;;;;;;;13.90;69.90;;;;;;5089132;28;20414;-65
2022/04/27 11:30:14;;;;;;;;;;;13.90;69.50;;;;;;5087346;28;19916;-70
2022/04/27 11:32:43;;;;;;;;;;;14.00;69.20;;;;;;5084707;28;20345;-70
2022/04/27 11:35:09;;;;;;;;;;;14.10;68.90;;;;;;5087331;28;20229;-70
2022/04/27 11:37:37;;;;;;;;;;;14.10;68.50;;;;;;5081963;28;19915;-69
2022/04/27 11:40:16;;;;;;;;;;;14.20;68.40;;;;;;5088364;28;19908;-69
2022/04/27 11:42:42;;;;;;;;;;;14.30;68.10;;;;;;5087377;28;20257;-69
2022/04/27 11:45:08;;;;;;;;;;;14.30;67.80;;;;;;5085665;28;19908;-69
2022/04/27 11:47:34;;;;;;;;;;;14.30;67.30;;;;;;5104171;28;20368;-67
2022/04/27 11:50:01;;;;;;;;;;;14.40;67.10;;;;;;5088231;28;19931;-69
2022/04/27 11:52:26;;;;;;;;;;;14.40;66.80;;;;;;5087361;28;19964;-67
2022/04/27 11:54:52;;;;;;;;;;;14.40;66.50;;;;;;5086665;28;19908;-68
2022/04/27 11:57:24;;;;;;;;;;;14.50;66.30;;;;;;5087507;28;20375;-68
2022/04/27 11:59:57;;;;;;;;;;;15.30;61.00;;;;;;5088252;28;19908;-67
2022/04/27 12:02:23;;;;;;;;;;;15.90;58.50;;;;;;5088447;28;19912;-67
2022/04/27 12:04:51;;;;;;;;;;;16.30;56.60;;;;;;5088261;28;20010;-68
2022/04/27 12:07:17;;;;;;;;;;;16.40;55.50;;;;;;5098665;28;19915;-67
2022/04/27 12:09:55;;;;;;;;;;;16.50;55.00;;;;;;5088552;28;20340;-66
2022/04/27 12:12:21;;;;;;;;;;;16.70;54.20;;;;;;5087990;28;20415;-68
2022/04/27 12:14:46;;;;;;;;;;;16.80;53.50;;;;;;5101674;28;19908;-69
2022/04/27 12:17:30;;;;;;;;;;;16.90;52.60;;;;;;5085793;28;19912;-69
2022/04/27 12:19:56;;;;;;;;;;;17.00;52.20;;;;;;5088629;28;19911;-68
2022/04/27 12:22:21;;;;;;;;;;;17.10;51.60;;;;;;5085253;28;19964;-69
2022/04/27 12:24:47;;;;;;;;;;;17.20;50.90;;;;;;5088378;28;19943;-69
2022/04/27 12:27:16;;;;;;;;;;;17.30;50.50;;;;;;5102118;28;19908;-69
2022/04/27 12:29:42;;;;;;;;;;;17.40;50.30;;;;;;5103883;28;20554;-69
2022/04/27 12:32:09;;;;;;;;;;;17.50;49.90;;;;;;5088395;28;19912;-69
2022/04/27 12:37:31;;;;;;;;;;;17.70;49.10;;;;;;5088739;28;21588;-68
2022/04/27 12:40:17;;;;;;;;;;;17.80;48.80;;;;;;5091279;28;20349;-68
2022/04/27 12:43:05;;;;;;;;;;;17.90;48.20;;;;;;5089885;28;19931;-69
2022/04/27 12:45:30;;;;;;;;;;;18.10;48.10;;;;;;5090032;28;19987;-68
2022/04/27 12:47:56;;;;;;;;;;;18.20;47.50;;;;;;5087324;28;20006;-68
2022/04/27 12:50:22;;;;;;;;;;;18.30;46.90;;;;;;5090226;28;20376;-69
2022/04/27 12:52:47;;;;;;;;;;;18.40;46.60;;;;;;5090632;28;19912;-69
2022/04/27 12:55:13;;;;;;;;;;;18.50;45.60;;;;;;5089845;28;20956;-69
2022/04/27 12:57:46;;;;;;;;;;;18.60;45.80;;;;;;5089969;28;19916;-68
2022/04/27 13:00:14;;;;;;;;;;;18.70;45.80;;;;;;5085024;28;19912;-66
2022/04/27 13:02:39;;;;;;;;;;;18.80;45.30;;;;;;5089433;28;19907;-68
2022/04/27 13:05:05;;;;;;;;;;;19.00;45.20;;;;;;5072403;28;19957;-70
2022/04/27 13:07:31;;;;;;;;;;;19.20;45.30;;;;;;5087166;28;20361;-67
2022/04/27 13:12:41;;;;;;;;;;;19.50;44.10;;;;;;5088017;28;19913;-69
2022/04/27 13:15:07;;;;;;;;;;;19.70;43.60;;;;;;5089988;28;19912;-68
2022/04/27 13:17:33;;;;;;;;;;;19.80;42.50;;;;;;5088484;28;19924;-69
2022/04/27 13:19:58;;;;;;;;;;;19.80;42.40;;;;;;5072032;28;19912;-68
2022/04/27 13:22:24;;;;;;;;;;;19.90;42.20;;;;;;5089597;28;20621;-67
2022/04/27 13:24:50;;;;;;;;;;;20.00;41.90;;;;;;5090907;28;19999;-67
2022/04/27 13:27:17;;;;;;;;;;;20.20;41.90;;;;;;5088308;28;20003;-69
2022/04/27 13:29:43;;;;;;;;;;;20.30;42.00;;;;;;5086985;28;20357;-70
2022/04/27 13:32:08;;;;;;;;;;;20.30;41.80;;;;;;5084205;28;20371;-70
2022/04/27 13:34:34;;;;;;;;;;;20.40;42.30;;;;;;5088842;28;19908;-68
2022/04/27 13:36:59;;;;;;;;;;;20.40;41.20;;;;;;5090746;28;19916;-69
2022/04/27 13:39:25;;;;;;;;;;;20.50;40.70;;;;;;5088350;28;19912;-68
2022/04/27 13:41:50;;;;;;;;;;;20.50;41.00;;;;;;5088240;28;19911;-67
2022/04/27 13:44:16;;;;;;;;;;;20.50;40.50;;;;;;5084885;28;20368;-69
2022/04/27 13:46:42;;;;;;;;;;;20.50;40.80;;;;;;5088444;28;20380;-68
2022/04/27 13:49:07;;;;;;;;;;;20.40;40.60;;;;;;5087626;28;19912;-67
2022/04/27 13:51:34;;;;;;;;;;;20.40;40.70;;;;;;5089080;28;19983;-68
2022/04/27 13:54:01;;;;;;;;;;;20.40;41.40;;;;;;5088056;28;19912;-68
2022/04/27 13:56:27;;;;;;;;;;;20.40;40.90;;;;;;5089182;28;19919;-69
2022/04/27 13:58:52;;;;;;;;;;;20.40;41.00;;;;;;5086549;28;19916;-69
2022/04/27 14:01:18;;;;;;;;;;;20.50;40.60;;;;;;5088949;28;19915;-68
2022/04/27 14:03:44;;;;;;;;;;;20.50;40.40;;;;;;5087565;28;19957;-70
2022/04/27 14:06:10;;;;;;;;;;;20.50;40.50;;;;;;5071371;28;19927;-68
2022/04/27 14:08:36;;;;;;;;;;;20.50;40.80;;;;;;5087329;28;20289;-69
2022/04/27 14:11:02;;;;;;;;;;;20.50;40.90;;;;;;5090112;28;19962;-68
2022/04/27 14:13:27;;;;;;;;;;;20.50;40.60;;;;;;5087132;28;19923;-68
2022/04/27 14:18:37;;;;;;;;;;;20.30;40.20;;;;;;5087098;28;19934;-69
2022/04/27 14:21:03;;;;;;;;;;;20.20;40.40;;;;;;5089257;28;19908;-68
2022/04/27 14:23:29;;;;;;;;;;;20.20;41.50;;;;;;5084881;28;19904;-68
2022/04/27 14:25:54;;;;;;;;;;;20.10;41.30;;;;;;5089456;28;19919;-70
2022/04/27 14:28:20;;;;;;;;;;;20.00;41.50;;;;;;5070695;28;19912;-69
2022/04/27 14:30:50;;;;;;;;;;;19.90;41.80;;;;;;5085630;28;19926;-69
2022/04/27 14:33:17;;;;;;;;;;;19.80;41.50;;;;;;5089439;28;20380;-70
2022/04/27 14:35:44;;;;;;;;;;;19.80;41.70;;;;;;5086502;28;20449;-69
2022/04/27 14:38:10;;;;;;;;;;;19.80;41.90;;;;;;5088035;28;19963;-69
2022/04/27 14:40:36;;;;;;;;;;;19.80;42.10;;;;;;5087035;28;19923;-68
2022/04/27 14:43:03;;;;;;;;;;;19.70;41.80;;;;;;5070711;28;19973;-70
2022/04/27 14:45:29;;;;;;;;;;;19.60;42.10;;;;;;5084081;28;19908;-69
2022/04/27 14:47:56;;;;;;;;;;;19.50;42.40;;;;;;5085741;28;20375;-67
2022/04/27 14:50:21;;;;;;;;;;;19.40;42.60;;;;;;5085560;28;20001;-70
2022/04/27 14:52:47;;;;;;;;;;;19.30;42.30;;;;;;5087935;28;19916;-69
2022/04/27 14:55:13;;;;;;;;;;;19.20;42.40;;;;;;5084333;28;19954;-68